Time;durP1;ratioP1;P1;durP2;ratioP2;P2;SDS_P1;SDS_P2;PMS_P1;PMS_P2;Temp;Humidity;BMP_temperature;BMP_pressure;BME280_temperature;BME280_humidity;BME280_pressure;Samples;Min_cycle;Max_cycle;Signal;HPM_P1;HPM_P2
2023/03/27 00:08:28;;;;;;;21.10;8.70;;;;;;;7.02;71.39;98890.36;676463;1269;139435;-78
2023/03/27 00:23:31;;;;;;;17.70;8.20;;;;;;;6.69;71.07;98887.60;677795;1268;139216;-78
2023/03/27 00:38:35;;;;;;;16.20;7.10;;;;;;;6.51;71.46;98876.73;677823;1269;139438;-78
2023/03/27 00:53:40;;;;;;;15.20;6.50;;;;;;;6.34;71.53;98876.86;674345;1269;139205;-78
2023/03/27 01:08:44;;;;;;;17.10;7.50;;;;;;;6.23;71.37;98867.96;672314;1267;139317;-78
2023/03/27 01:24:23;;;;;;;14.30;5.30;;;;;;;5.96;71.97;98877.39;675462;1266;139450;-78
2023/03/27 01:39:33;;;;;;;37.90;11.40;;;;;;;5.79;71.74;98899.43;671405;1268;139967;-77
2023/03/27 01:54:54;;;;;;;58.40;22.80;;;;;;;5.27;73.47;98924.56;677042;1269;139326;-78
2023/03/27 02:10:03;;;;;;;31.50;13.70;;;;;;;5.11;74.05;98947.27;676740;1269;139533;-78
2023/03/27 02:25:44;;;;;;;18.30;10.80;;;;;;;5.41;74.55;98934.85;676669;1270;139012;-77
2023/03/27 02:40:57;;;;;;;29.80;13.20;;;;;;;5.32;75.25;98954.30;674848;1270;138847;-77
2023/03/27 02:56:38;;;;;;;16.00;5.60;;;;;;;5.64;75.95;98962.30;678475;1270;139125;-77
2023/03/27 03:11:55;;;;;;;11.70;4.60;;;;;;;5.82;76.36;98965.88;671476;1270;140460;-78
2023/03/27 03:27:01;;;;;;;9.40;4.10;;;;;;;5.89;76.43;98978.51;676734;1271;138904;-77
2023/03/27 03:42:05;;;;;;;13.90;5.30;;;;;;;6.04;76.78;98986.38;674230;1270;143151;-78
2023/03/27 03:57:08;;;;;;;33.20;12.00;;;;;;;5.91;77.46;98991.31;676765;1269;138513;-78
2023/03/27 04:12:12;;;;;;;446.40;136.10;;;;;;;6.05;76.92;98996.89;671020;1270;140117;-77
2023/03/27 04:27:29;;;;;;;31.60;11.60;;;;;;;6.26;76.08;98992.89;674503;1273;139876;-77
2023/03/27 04:42:44;;;;;;;9.50;4.80;;;;;;;6.45;75.58;98983.23;673985;1267;139935;-80
2023/03/27 04:57:47;;;;;;;13.70;7.00;;;;;;;6.55;73.92;98976.58;675570;1273;139487;-76
2023/03/27 05:12:52;;;;;;;11.90;7.20;;;;;;;6.48;73.27;98978.76;678008;1272;138934;-77
2023/03/27 05:27:59;;;;;;;11.00;5.00;;;;;;;6.58;72.74;98987.92;674166;1269;139122;-77
2023/03/27 05:43:05;;;;;;;;;;;;;;;6.60;72.12;99013.61;678530;1274;139820;-77
2023/03/27 05:58:10;;;;;;;10.10;3.30;;;;;;;6.65;71.86;99036.13;668989;1268;125340;-79
2023/03/27 06:13:14;;;;;;;18.20;7.60;;;;;;;6.85;71.57;99068.70;667676;1282;138554;-79
2023/03/27 06:28:26;;;;;;;11.90;4.20;;;;;;;6.84;70.54;99091.58;675463;1271;138456;-78
2023/03/27 06:43:29;;;;;;;26.90;11.40;;;;;;;6.83;69.52;99101.75;672557;1269;139015;-79
2023/03/27 06:58:37;;;;;;;8.80;4.00;;;;;;;6.97;69.28;99120.98;670189;1270;139631;-79
2023/03/27 07:13:42;;;;;;;8.70;3.60;;;;;;;7.31;69.58;99133.91;670185;1273;138926;-79
2023/03/27 07:28:50;;;;;;;7.40;2.90;;;;;;;7.54;69.79;99147.07;674888;1272;138405;-79
2023/03/27 07:43:55;;;;;;;7.30;3.90;;;;;;;8.14;69.22;99160.51;676455;1269;139767;-78
2023/03/27 07:59:00;;;;;;;11.90;7.60;;;;;;;8.64;68.96;99168.69;668240;1270;139742;-78
2023/03/27 08:14:03;;;;;;;12.10;7.00;;;;;;;8.44;67.91;99179.34;672021;1270;139347;-78
2023/03/27 08:29:08;;;;;;;4.40;3.40;;;;;;;8.49;68.04;99195.61;673830;1271;139150;-78
2023/03/27 08:44:20;;;;;;;161.90;64.40;;;;;;;8.30;67.74;99211.95;672734;1270;139290;-81
2023/03/27 08:59:27;;;;;;;27.80;16.30;;;;;;;8.20;68.25;99225.27;673807;1266;139475;-78
2023/03/27 09:14:37;;;;;;;31.10;16.90;;;;;;;8.25;68.53;99245.23;678516;1269;139991;-79
2023/03/27 09:29:40;;;;;;;15.40;9.40;;;;;;;9.08;67.31;99254.06;674349;1271;138553;-78
2023/03/27 09:45:11;;;;;;;29.60;16.70;;;;;;;8.46;67.96;99288.10;673750;1271;138538;-77
2023/03/27 10:00:35;;;;;;;;;;;;;;;7.76;70.31;99304.92;673149;1272;139757;-77
2023/03/27 10:15:41;;;;;;;54.00;23.20;;;;;;;8.69;70.92;99310.42;671246;1272;124773;-78
2023/03/27 10:31:01;;;;;;;17.50;8.80;;;;;;;8.66;69.68;99315.03;665465;1281;138444;-78
2023/03/27 10:46:27;;;;;;;6.10;3.30;;;;;;;8.30;69.28;99341.46;668619;1272;138948;-77
2023/03/27 11:01:40;;;;;;;6.50;3.80;;;;;;;7.97;69.96;99386.81;666517;1282;138787;-79
2023/03/27 11:16:51;;;;;;;5.30;3.40;;;;;;;8.03;70.33;99419.48;674883;1269;138856;-79
2023/03/27 11:32:43;;;;;;;13.90;6.60;;;;;;;7.43;70.05;99445.22;668150;1272;139205;-79
2023/03/27 11:48:05;;;;;;;9.60;4.10;;;;;;;7.23;70.08;99468.70;669148;1273;138622;-78
2023/03/27 12:03:45;;;;;;;12.90;7.00;;;;;;;7.20;69.27;99480.77;669239;1282;139071;-78
2023/03/27 12:19:20;;;;;;;12.10;6.40;;;;;;;7.20;68.58;99493.98;668891;1274;138180;-78
2023/03/27 12:34:56;;;;;;;15.90;7.70;;;;;;;7.82;68.20;99496.93;667128;1267;138559;-78
2023/03/27 12:50:18;;;;;;;11.00;5.70;;;;;;;8.42;67.37;99496.23;665908;1270;139450;-78
2023/03/27 13:05:36;;;;;;;10.30;5.30;;;;;;;8.70;65.91;99509.45;671595;1266;138635;-78
2023/03/27 13:21:10;;;;;;;8.10;4.30;;;;;;;9.21;64.55;99515.02;669760;1270;138422;-78
2023/03/27 13:36:18;;;;;;;10.40;6.90;;;;;;;9.48;63.45;99525.90;672757;1260;140512;-78
2023/03/27 13:51:59;;;;;;;15.10;8.90;;;;;;;9.51;61.95;99545.66;669470;1264;138295;-78
2023/03/27 14:07:33;;;;;;;16.40;8.30;;;;;;;9.92;60.83;99574.30;670452;1270;139529;-78
2023/03/27 14:22:46;;;;;;;14.50;6.60;;;;;;;10.73;57.28;99593.67;671151;1262;138784;-78
2023/03/27 14:37:58;;;;;;;19.00;8.10;;;;;;;8.67;56.99;99631.24;673470;1258;139279;-77
2023/03/27 14:53:26;;;;;;;15.70;9.30;;;;;;;8.15;56.80;99664.14;673338;1264;139075;-77
2023/03/27 15:09:04;;;;;;;12.00;5.80;;;;;;;7.64;55.36;99693.11;674235;1263;138938;-79
2023/03/27 15:24:37;;;;;;;11.40;5.00;;;;;;;8.79;55.05;99733.25;671549;1263;138507;-80
2023/03/27 15:40:12;;;;;;;16.90;7.60;;;;;;;9.86;53.00;99757.20;675446;1264;290042;-78
2023/03/27 15:55:41;;;;;;;16.70;8.50;;;;;;;14.08;49.83;99790.42;673326;1273;138869;-78
2023/03/27 16:10:46;;;;;;;31.00;13.90;;;;;;;13.48;46.70;99808.42;675788;1262;138637;-77
2023/03/27 16:25:50;;;;;;;47.80;16.90;;;;;;;12.26;45.01;99825.05;673043;1273;139066;-77
2023/03/27 16:40:53;;;;;;;42.70;17.10;;;;;;;9.67;45.39;99842.63;672197;1263;138061;-78
2023/03/27 16:55:56;;;;;;;89.50;24.60;;;;;;;7.73;46.83;99859.61;673810;1261;138618;-79
2023/03/27 17:11:05;;;;;;;89.40;32.40;;;;;;;6.81;47.99;99882.76;671300;1260;139476;-78
2023/03/27 17:26:11;;;;;;;51.70;20.00;;;;;;;6.08;48.77;99896.55;673506;1262;138303;-78
2023/03/27 17:41:19;;;;;;;49.60;18.40;;;;;;;5.50;49.48;99897.64;673738;1263;138671;-78
2023/03/27 17:56:22;;;;;;;76.00;24.20;;;;;;;5.21;49.86;99910.87;670050;1258;138070;-80
2023/03/27 18:11:28;;;;;;;37.00;17.70;;;;;;;4.99;50.46;99929.03;670596;1262;138859;-78
2023/03/27 18:26:31;;;;;;;239.00;100.30;;;;;;;4.71;50.97;99942.21;670806;1274;139135;-78
2023/03/27 18:41:36;;;;;;;56.90;28.10;;;;;;;4.40;51.47;99953.84;671738;1262;139897;-78
2023/03/27 18:56:40;;;;;;;43.00;17.20;;;;;;;4.26;52.01;99957.36;669248;1261;138318;-78
2023/03/27 19:11:43;;;;;;;101.40;49.80;;;;;;;4.14;52.57;99963.00;673815;1262;139140;-79
2023/03/27 19:27:25;;;;;;;45.50;22.70;;;;;;;3.98;53.68;99972.58;677111;1259;139354;-78
2023/03/27 19:42:40;;;;;;;48.80;18.10;;;;;;;3.79;54.43;99971.02;675914;1262;138881;-78
2023/03/27 19:57:43;;;;;;;112.00;38.10;;;;;;;3.73;55.05;99963.29;677647;1262;138578;-79
2023/03/27 20:12:47;;;;;;;128.40;52.30;;;;;;;3.54;55.39;99953.23;676464;1262;142621;-78
2023/03/27 20:27:51;;;;;;;48.60;21.50;;;;;;;3.49;55.67;99940.27;678489;1259;139208;-79
2023/03/27 20:43:01;;;;;;;66.10;26.70;;;;;;;3.31;56.14;99924.28;677897;1259;139632;-78
2023/03/27 20:58:09;;;;;;;54.20;21.10;;;;;;;3.00;56.55;99908.36;678056;1262;140414;-77
2023/03/27 21:13:12;;;;;;;40.80;16.90;;;;;;;2.70;56.81;99898.33;677162;1260;139700;-78
2023/03/27 21:28:16;;;;;;;30.50;11.60;;;;;;;2.47;57.56;99879.86;671716;1260;139293;-78
2023/03/27 21:43:22;;;;;;;48.80;17.70;;;;;;;2.38;57.59;99875.23;675889;1262;139321;-77
2023/03/27 21:58:26;;;;;;;53.10;20.40;;;;;;;2.28;58.16;99876.30;677407;1262;139790;-78
2023/03/27 22:13:29;;;;;;;53.70;19.40;;;;;;;2.12;58.43;99875.73;676671;1262;139560;-78
2023/03/27 22:28:33;;;;;;;175.60;41.60;;;;;;;1.90;58.81;99873.58;680327;1262;140532;-79
2023/03/27 22:43:36;;;;;;;32.90;12.80;;;;;;;1.81;58.87;99860.30;674228;1262;139406;-79
2023/03/27 22:58:39;;;;;;;37.40;15.10;;;;;;;1.76;59.11;99854.54;670048;1259;143075;-78
2023/03/27 23:13:42;;;;;;;25.70;10.80;;;;;;;1.57;59.73;99853.72;675020;1262;139069;-79
2023/03/27 23:28:46;;;;;;;115.70;34.90;;;;;;;1.36;60.28;99852.51;672653;1259;139018;-78
2023/03/27 23:43:49;;;;;;;60.60;18.30;;;;;;;1.25;60.97;99847.08;674429;1266;140095;-79
2023/03/27 23:58:52;;;;;;;60.90;17.80;;;;;;;1.09;61.15;99841.95;671726;1259;139498;-79
